DAUZ

In Aménas Airport

Aménas, Algeria
METAR DAUZ 181400Z 01007KT 7000 SCT046TCU 43/05 Q1011
Observed Flight Rules
Aug-18 @ 14:00 UTC (52 minutes ago) Marginal Visual Flight Rules
Wind Visibility Clouds
10° at 7 knots 7,001 meters
  • Scattered at 4,600' AGL
Temperatures Readings
Current 43°C / 109°F
Dewpoint 5°C / 41°F
Humidity 10%
Altimeter 29.85" Hg
Pressure 1011 hPa
Elevation 562
METAR DAUZ 181400Z 01007KT 7000 SCT046TCU 43/05 Q1011
Observed Flight Rules
Aug-18 @ 14:00 UTC
(52 minutes ago)
MVFR
Wind Visibility
10° at 7 knots 7,001 meters
Clouds
  • Scattered at 4,600' AGL
Temperature Dewpoint
43°C / 109°F 5°C / 41°F
Humidity Altimeter Pressure
10% 29.85" Hg 1011 hPa